Gilmanton, Wisconsin
Current Conditions -  °F | °C
As of 5:14 PM on Wednesday 17 Dec 2014 (Local Time) from KONA Reporting Station
Overcast Overcast  
Wind Chill: 21°   Ceiling: 2200
Heat Index: 21°   Visibility: 10mi
Dew Point: 14°   Wind: 3mph
Humidity: 74%   Direction: 330°NNW
Pressure: 30.32"   Gusts: NA
Location:  44.47°N, 91.68°W
Report Text: KONA 172314Z AUTO 33003KT 10SM OVC022 M06/M10 A3032 RMK AO2
Loading
Personal Weather Stations






























Interactive Weather Map New forecast layout! Learn more

10-Day Weather Forecast

Advertisements
Track Severe Weather on mobile